Rossie, Iowa
Current Conditions -  °F | °C
As of 7:53 PM on Saturday 20 Dec 2014 (Local Time) from KSPW Reporting Station
Overcast Overcast  
Wind Chill: 23°   Ceiling: 800
Heat Index: 32°   Visibility: 9mi
Dew Point: 29°   Wind: 13mph
Humidity: 88%   Direction: 160°SSE
Pressure: 30.05"   Gusts: NA
Location:  43.0463°N, 95.2692°W
Report Text: KSPW 210153Z AUTO 16011KT 9SM OVC008 00/M02 A3005 RMK AO2 SLP191 T00001017 TSNO
Loading
Personal Weather Stations






























Interactive Weather Map New forecast layout! Learn more

10-Day Weather Forecast

Advertisements
Track Severe Weather on mobile